Terminal Aerodrome Forecast
Issued by NWS Newport/Morehead City, NC

Home | Current Version | Previous Version | Text Only | Print | Product List | Glossary Off
Versions: 1 2 3 4 5 6 7 8 9 10 11 12 13 14 15 16 17 18 19 20 21 22

000
FTUS42 KMHX 210540 AAB
TAFEWN
TAF AMD
KEWN 210540Z 2106/2206 00000KT 1/2SM FG OVC002
     FM211300 02003KT 2SM BR OVC003
     FM211500 05004KT P6SM BKN007
     FM211800 12004KT P6SM BKN010
     FM212100 14005KT P6SM -SHRA BKN010
     FM212300 15004KT 5SM SHRA BR OVC007=

USA.gov is the U.S. government's official web portal to all federal, state and local government web resources and services.